Time;durP1;ratioP1;P1;durP2;ratioP2;P2;SDS_P1;SDS_P2;PMS_P1;PMS_P2;Temp;Humidity;BMP_temperature;BMP_pressure;BME280_temperature;BME280_humidity;BME280_pressure;Samples;Min_cycle;Max_cycle;Signal;HPM_P1;HPM_P2
2023/04/20 00:01:00;;;;;;;2.28;0.93;;;18.50;1.00;;;;;;5034278;28;20063;-37
2023/04/20 00:03:27;;;;;;;2.38;1.30;;;18.50;1.00;;;;;;5051129;28;20041;-37
2023/04/20 00:05:54;;;;;;;2.92;1.20;;;18.50;1.00;;;;;;5051966;28;20037;-38
2023/04/20 00:08:21;;;;;;;3.17;1.10;;;18.50;1.00;;;;;;5051786;28;20064;-37
2023/04/20 00:10:47;;;;;;;1.95;1.05;;;18.50;1.00;;;;;;5051932;28;20493;-37
2023/04/20 00:13:14;;;;;;;2.55;0.88;;;18.50;1.00;;;;;;5051013;28;20083;-37
2023/04/20 00:15:41;;;;;;;1.83;1.27;;;18.40;1.00;;;;;;5051846;28;20052;-37
2023/04/20 00:18:08;;;;;;;2.28;1.10;;;18.40;1.00;;;;;;5051802;28;20033;-36
2023/04/20 00:20:35;;;;;;;1.45;0.80;;;18.40;1.00;;;;;;5051584;28;20037;-38
2023/04/20 00:23:02;;;;;;;4.75;1.13;;;18.40;1.00;;;;;;5051037;28;20240;-37
2023/04/20 00:25:30;;;;;;;5.20;1.73;;;18.40;1.00;;;;;;5051727;28;20049;-37
2023/04/20 00:27:57;;;;;;;1.85;0.80;;;18.40;1.00;;;;;;5051598;28;20049;-37
2023/04/20 00:30:24;;;;;;;1.40;1.00;;;18.40;1.00;;;;;;5033728;28;20076;-37
2023/04/20 00:32:51;;;;;;;3.22;1.02;;;18.40;1.00;;;;;;5032944;28;20049;-37
2023/04/20 00:35:17;;;;;;;3.40;1.10;;;18.40;1.00;;;;;;5051585;28;20071;-37
2023/04/20 00:37:44;;;;;;;1.50;0.95;;;18.40;1.00;;;;;;5051593;28;20079;-37
2023/04/20 00:40:11;;;;;;;1.75;0.80;;;18.30;1.00;;;;;;5033650;28;20048;-38
2023/04/20 00:42:40;;;;;;;2.53;0.93;;;18.40;1.00;;;;;;5050716;28;20147;-37
2023/04/20 00:45:08;;;;;;;7.22;2.00;;;18.30;1.00;;;;;;5033747;28;20053;-37
2023/04/20 00:47:36;;;;;;;2.53;1.23;;;18.30;1.00;;;;;;5034132;28;20136;-37
2023/04/20 00:50:03;;;;;;;3.17;1.20;;;18.30;1.00;;;;;;5037482;28;20049;-37
2023/04/20 00:52:31;;;;;;;5.45;1.42;;;18.30;1.00;;;;;;5054858;28;20151;-37
2023/04/20 00:54:58;;;;;;;2.63;1.20;;;18.30;1.00;;;;;;5054717;28;20044;-37
2023/04/20 00:57:26;;;;;;;2.97;0.88;;;18.30;1.00;;;;;;5055358;28;20072;-37
2023/04/20 00:59:53;;;;;;;3.33;0.75;;;18.30;1.00;;;;;;5037443;28;20041;-37
2023/04/20 01:02:21;;;;;;;2.92;1.17;;;18.30;1.00;;;;;;5054653;28;20043;-37
2023/04/20 01:04:48;;;;;;;4.20;1.58;;;18.20;1.00;;;;;;5054785;28;20132;-37
2023/04/20 01:07:15;;;;;;;2.47;1.40;;;18.20;1.00;;;;;;5037383;28;20500;-37
2023/04/20 01:09:42;;;;;;;3.78;1.10;;;18.20;1.00;;;;;;5037087;28;20049;-38
2023/04/20 01:12:10;;;;;;;3.13;1.00;;;18.20;1.00;;;;;;5054825;28;20056;-38
2023/04/20 01:14:37;;;;;;;1.23;0.70;;;18.30;1.00;;;;;;5036516;28;20049;-37
2023/04/20 01:17:04;;;;;;;2.08;1.00;;;18.20;1.00;;;;;;5036929;28;20045;-37
2023/04/20 01:19:32;;;;;;;2.08;1.40;;;18.20;1.00;;;;;;5054820;28;20045;-38
2023/04/20 01:22:01;;;;;;;4.53;1.10;;;18.20;1.00;;;;;;5036522;28;20041;-38
2023/04/20 01:24:27;;;;;;;4.18;1.23;;;18.20;1.00;;;;;;5019871;28;20036;-36
2023/04/20 01:26:55;;;;;;;3.25;1.15;;;18.20;1.00;;;;;;5055115;28;20053;-36
2023/04/20 01:29:22;;;;;;;5.03;1.15;;;18.20;1.00;;;;;;5036958;28;20075;-36
2023/04/20 01:31:48;;;;;;;1.45;1.10;;;18.20;1.00;;;;;;5054611;28;20496;-36
2023/04/20 01:34:16;;;;;;;2.00;0.90;;;18.20;1.00;;;;;;5053788;28;20155;-36
2023/04/20 01:36:44;;;;;;;2.30;1.42;;;18.10;1.00;;;;;;5054221;28;20052;-36
2023/04/20 01:39:11;;;;;;;2.17;1.13;;;18.20;1.00;;;;;;5054690;28;20549;-36
2023/04/20 01:41:38;;;;;;;2.70;0.90;;;18.20;1.00;;;;;;5036508;28;20095;-36
2023/04/20 01:44:05;;;;;;;1.73;0.98;;;18.10;1.00;;;;;;5053681;28;20095;-36
2023/04/20 01:46:35;;;;;;;3.70;1.27;;;18.10;1.00;;;;;;5054376;28;20040;-36
2023/04/20 01:49:02;;;;;;;3.28;0.93;;;18.10;1.00;;;;;;5036369;28;20049;-36
2023/04/20 01:51:28;;;;;;;2.20;0.90;;;18.10;1.00;;;;;;5054379;28;20037;-36
2023/04/20 01:53:55;;;;;;;6.55;0.98;;;18.10;1.00;;;;;;5035467;28;20136;-36
2023/04/20 01:56:22;;;;;;;3.10;1.23;;;18.10;1.00;;;;;;5054260;28;20041;-36
2023/04/20 01:58:49;;;;;;;2.25;1.00;;;18.10;1.00;;;;;;5053648;28;20562;-36
2023/04/20 02:01:16;;;;;;;1.35;0.77;;;18.10;1.00;;;;;;5035158;28;20511;-36
2023/04/20 02:03:43;;;;;;;1.42;0.55;;;18.10;1.00;;;;;;5053177;28;20041;-36
2023/04/20 02:06:10;;;;;;;1.58;0.60;;;18.10;1.00;;;;;;5053933;28;20512;-36
2023/04/20 02:08:37;;;;;;;3.70;0.93;;;18.10;1.00;;;;;;5036067;28;20076;-36
2023/04/20 02:11:06;;;;;;;3.78;1.13;;;18.00;1.00;;;;;;5035915;28;20045;-36
2023/04/20 02:13:35;;;;;;;2.70;1.20;;;18.00;1.00;;;;;;5035259;28;20480;-36
2023/04/20 02:16:02;;;;;;;2.03;0.90;;;18.00;1.00;;;;;;5035728;28;20045;-36
2023/04/20 02:18:31;;;;;;;2.22;1.30;;;18.00;1.00;;;;;;5053716;28;20045;-36
2023/04/20 02:20:59;;;;;;;1.60;1.00;;;18.00;1.00;;;;;;5035642;28;20045;-36
2023/04/20 02:23:26;;;;;;;1.73;0.80;;;18.00;1.00;;;;;;5053090;28;20095;-36
2023/04/20 02:25:54;;;;;;;1.92;0.70;;;18.00;1.00;;;;;;5053577;28;20136;-36
2023/04/20 02:28:21;;;;;;;2.50;1.02;;;18.00;1.00;;;;;;5053577;28;20072;-36
2023/04/20 02:30:48;;;;;;;1.45;0.80;;;18.00;1.00;;;;;;5053502;28;20041;-36
2023/04/20 02:33:14;;;;;;;2.60;1.25;;;18.00;1.00;;;;;;5034878;28;20053;-37
2023/04/20 02:35:41;;;;;;;4.75;2.05;;;18.00;1.00;;;;;;5035458;28;20045;-35
2023/04/20 02:38:09;;;;;;;2.05;0.80;;;18.00;1.00;;;;;;5035530;28;20095;-36
2023/04/20 02:40:37;;;;;;;1.55;0.70;;;18.00;1.00;;;;;;5035374;28;20045;-38
2023/04/20 02:43:05;;;;;;;1.98;1.30;;;17.90;1.00;;;;;;5034641;28;20128;-37
2023/04/20 02:45:33;;;;;;;2.65;1.05;;;17.90;1.00;;;;;;5035352;28;20045;-37
2023/04/20 02:47:59;;;;;;;2.70;1.15;;;17.90;1.00;;;;;;5053151;28;20049;-37
2023/04/20 02:50:30;;;;;;;3.03;0.73;;;17.90;1.00;;;;;;5035327;28;20041;-37
2023/04/20 02:53:05;;;;;;;1.65;0.80;;;17.90;1.00;;;;;;5034503;28;20051;-37
2023/04/20 02:55:35;;;;;;;2.95;1.20;;;17.90;1.00;;;;;;5035090;28;20053;-37
2023/04/20 02:58:09;;;;;;;3.03;1.02;;;17.90;1.00;;;;;;5035181;28;20072;-37
2023/04/20 03:01:06;;;;;;;2.78;0.90;;;17.90;1.00;;;;;;5022547;28;20044;-37
2023/04/20 03:03:34;;;;;;;1.85;1.20;;;17.90;1.00;;;;;;5034346;28;20045;-37
2023/04/20 03:06:03;;;;;;;1.23;0.70;;;17.80;1.00;;;;;;5034893;28;20049;-37
2023/04/20 03:08:30;;;;;;;1.83;0.63;;;17.80;1.00;;;;;;5034876;28;20052;-37
2023/04/20 03:11:02;;;;;;;3.70;1.23;;;17.90;1.00;;;;;;5034575;28;20566;-37
2023/04/20 03:13:28;;;;;;;1.65;0.70;;;17.90;1.00;;;;;;5034037;28;20048;-37
2023/04/20 03:15:59;;;;;;;5.13;0.85;;;17.90;1.00;;;;;;5034664;28;20047;-37
2023/04/20 03:18:42;;;;;;;2.17;0.70;;;17.90;1.00;;;;;;5034677;28;20056;-37
2023/04/20 03:21:09;;;;;;;3.45;0.80;;;17.80;1.00;;;;;;5045880;23;20134;-36
2023/04/20 03:23:36;;;;;;;1.27;0.60;;;17.80;1.00;;;;;;5053654;28;20117;-36
2023/04/20 03:26:05;;;;;;;1.80;0.60;;;17.80;1.00;;;;;;5054657;28;20448;-36
2023/04/20 03:28:50;;;;;;;2.38;1.02;;;17.80;1.00;;;;;;5054445;28;20565;-36
2023/04/20 03:31:21;;;;;;;4.70;0.90;;;17.80;1.00;;;;;;5054109;28;20040;-36
2023/04/20 03:33:49;;;;;;;3.08;1.20;;;17.80;1.00;;;;;;5053725;28;20515;-36
2023/04/20 03:36:16;;;;;;;3.83;1.17;;;17.80;1.00;;;;;;5051644;28;20118;-36
2023/04/20 03:38:43;;;;;;;4.40;1.27;;;17.70;1.00;;;;;;5054175;28;20043;-36
2023/04/20 03:41:10;;;;;;;1.63;0.57;;;17.80;1.00;;;;;;5054088;28;20094;-36
2023/04/20 03:43:37;;;;;;;1.02;0.55;;;17.70;1.00;;;;;;5053190;28;20072;-36
2023/04/20 03:46:04;;;;;;;2.97;0.70;;;17.70;1.00;;;;;;5072092;28;20052;-36
2023/04/20 03:48:31;;;;;;;5.90;0.93;;;17.70;1.00;;;;;;5072040;28;20106;-35
2023/04/20 03:50:58;;;;;;;1.50;0.70;;;17.70;1.00;;;;;;5053946;28;20526;-35
2023/04/20 03:53:27;;;;;;;1.40;0.47;;;17.70;1.00;;;;;;5053462;28;20062;-35
2023/04/20 03:55:55;;;;;;;2.38;1.17;;;17.70;1.00;;;;;;5072129;28;20066;-35
2023/04/20 03:58:21;;;;;;;2.47;0.90;;;17.70;1.00;;;;;;5054008;28;20416;-35
2023/04/20 04:01:08;;;;;;;1.45;0.73;;;17.70;1.00;;;;;;5054050;28;20048;-35
2023/04/20 04:03:38;;;;;;;2.67;0.70;;;17.70;1.00;;;;;;5053478;28;20044;-35
2023/04/20 04:06:06;;;;;;;1.45;0.63;;;17.70;1.00;;;;;;5054077;28;20044;-35
2023/04/20 04:08:34;;;;;;;4.68;0.93;;;17.60;1.00;;;;;;5054206;28;20041;-35
2023/04/20 04:11:00;;;;;;;2.03;1.00;;;17.70;1.00;;;;;;5039417;28;20451;-35
2023/04/20 04:13:27;;;;;;;5.60;0.98;;;17.70;1.00;;;;;;5067770;28;20052;-36
2023/04/20 04:15:54;;;;;;;1.92;0.88;;;17.60;1.00;;;;;;5053924;28;20070;-35
2023/04/20 04:18:21;;;;;;;1.65;0.65;;;17.60;1.00;;;;;;5054051;28;20044;-35
2023/04/20 04:20:50;;;;;;;3.80;0.80;;;17.60;1.00;;;;;;5053667;28;20044;-36
2023/04/20 04:23:17;;;;;;;10.30;1.38;;;17.60;1.00;;;;;;5054703;28;20044;-35
2023/04/20 04:25:50;;;;;;;4.85;0.85;;;17.60;1.00;;;;;;5076040;28;20401;-35
2023/04/20 04:28:22;;;;;;;5.13;1.13;;;17.60;1.00;;;;;;5057675;28;20499;-36
2023/04/20 04:31:04;;;;;;;4.68;1.75;;;17.60;1.00;;;;;;5042684;28;20040;-36
2023/04/20 04:33:33;;;;;;;4.47;1.00;;;17.60;1.00;;;;;;5046682;28;20051;-36
2023/04/20 04:36:01;;;;;;;1.92;0.50;;;17.60;1.00;;;;;;5039558;28;20138;-36
2023/04/20 04:38:32;;;;;;;6.40;0.65;;;17.60;1.00;;;;;;5041610;28;20441;-36
2023/04/20 04:40:59;;;;;;;7.22;0.88;;;17.60;1.00;;;;;;5036674;28;20051;-36
2023/04/20 04:43:28;;;;;;;1.55;0.40;;;17.50;1.00;;;;;;5054049;28;20052;-36
2023/04/20 04:46:10;;;;;;;2.40;0.65;;;17.50;1.00;;;;;;5057351;28;20056;-36
2023/04/20 04:48:39;;;;;;;3.42;0.90;;;17.50;1.00;;;;;;5057364;28;20110;-36
2023/04/20 04:51:06;;;;;;;2.25;0.77;;;17.50;1.00;;;;;;5057435;28;20048;-36
2023/04/20 04:53:34;;;;;;;6.97;1.50;;;17.50;1.00;;;;;;5074458;28;20094;-36
2023/04/20 04:56:01;;;;;;;1.67;0.68;;;17.50;1.00;;;;;;5068821;28;20547;-36
2023/04/20 04:58:28;;;;;;;7.15;1.30;;;17.50;1.00;;;;;;5073395;28;20591;-36
2023/04/20 05:00:54;;;;;;;2.53;0.98;;;17.40;1.00;;;;;;5073543;28;20045;-36
2023/04/20 05:03:21;;;;;;;2.10;0.52;;;17.40;1.00;;;;;;5074339;28;20048;-36
2023/04/20 05:05:48;;;;;;;6.78;1.83;;;17.40;1.00;;;;;;5074959;28;20040;-36
2023/04/20 05:08:15;;;;;;;2.00;0.75;;;17.40;1.00;;;;;;5075032;28;20044;-36
2023/04/20 05:10:41;;;;;;;0.90;0.50;;;17.40;1.00;;;;;;5074922;28;20488;-36
2023/04/20 05:13:08;;;;;;;5.38;1.13;;;17.40;1.00;;;;;;5074370;28;20072;-36
2023/04/20 05:15:35;;;;;;;2.22;0.90;;;17.40;1.00;;;;;;5074728;28;20487;-36
2023/04/20 05:18:02;;;;;;;2.67;0.63;;;17.40;1.00;;;;;;5074795;28;20036;-36
2023/04/20 05:20:28;;;;;;;4.32;0.90;;;17.40;1.00;;;;;;5074976;28;20385;-36
2023/04/20 05:22:55;;;;;;;1.95;0.70;;;17.40;1.00;;;;;;5073986;28;20041;-36
2023/04/20 05:25:22;;;;;;;5.43;0.93;;;17.40;1.00;;;;;;5074766;28;20381;-36
2023/04/20 05:27:49;;;;;;;4.30;0.75;;;17.40;1.00;;;;;;5074556;28;20033;-36
2023/04/20 05:30:16;;;;;;;3.47;1.00;;;17.30;1.00;;;;;;5074793;28;20055;-36
2023/04/20 05:32:50;;;;;;;2.05;1.00;;;17.40;1.00;;;;;;5073896;28;20036;-36
2023/04/20 05:35:19;;;;;;;4.32;0.93;;;17.30;1.00;;;;;;5074315;28;20051;-36
2023/04/20 05:37:46;;;;;;;6.35;1.15;;;17.30;1.00;;;;;;5074471;28;20045;-36
2023/04/20 05:40:14;;;;;;;4.25;1.48;;;17.30;1.00;;;;;;5074363;28;20523;-36
2023/04/20 05:42:41;;;;;;;2.78;0.73;;;17.30;1.00;;;;;;5055717;28;20451;-36
2023/04/20 05:45:08;;;;;;;2.83;1.08;;;17.30;1.00;;;;;;5074363;28;20048;-36
2023/04/20 05:47:35;;;;;;;3.13;0.80;;;17.30;1.00;;;;;;5074310;28;20044;-36
2023/04/20 05:50:03;;;;;;;3.78;0.68;;;17.30;1.00;;;;;;5074278;28;20451;-36
2023/04/20 05:52:30;;;;;;;4.20;1.30;;;17.30;1.00;;;;;;5073809;28;20154;-36
2023/04/20 05:54:58;;;;;;;2.13;0.70;;;17.30;1.00;;;;;;5073561;28;20045;-36
2023/04/20 05:57:25;;;;;;;3.17;1.17;;;17.30;1.00;;;;;;5074118;28;20457;-36
2023/04/20 05:59:54;;;;;;;4.68;1.10;;;17.30;1.00;;;;;;5074014;28;20037;-36
2023/04/20 06:02:20;;;;;;;1.48;0.70;;;17.30;1.00;;;;;;5073595;28;20393;-36
2023/04/20 06:04:48;;;;;;;2.30;1.08;;;17.30;1.00;;;;;;5056036;28;20075;-36
2023/04/20 06:07:14;;;;;;;3.95;1.25;;;17.30;1.00;;;;;;5074000;28;20040;-36
2023/04/20 06:09:42;;;;;;;2.67;1.15;;;17.20;1.00;;;;;;5073717;28;20090;-36
2023/04/20 06:12:08;;;;;;;2.22;0.80;;;17.20;1.00;;;;;;5073849;28;20048;-36
2023/04/20 06:14:35;;;;;;;4.30;1.02;;;17.20;1.00;;;;;;5073436;28;20388;-36
2023/04/20 06:17:02;;;;;;;2.17;0.80;;;17.20;1.00;;;;;;5056123;28;20045;-36
2023/04/20 06:19:28;;;;;;;5.03;1.35;;;17.20;1.00;;;;;;5055972;28;20052;-36
2023/04/20 06:21:56;;;;;;;4.68;1.00;;;17.20;1.00;;;;;;5073406;28;20044;-36
2023/04/20 06:24:26;;;;;;;4.20;1.30;;;17.20;1.00;;;;;;5072795;28;20067;-36
2023/04/20 06:26:53;;;;;;;5.15;1.30;;;17.20;1.00;;;;;;5073492;28;20044;-36
2023/04/20 06:29:20;;;;;;;2.20;1.02;;;17.20;1.00;;;;;;5073352;28;20040;-36
2023/04/20 06:31:47;;;;;;;2.42;1.10;;;17.20;1.00;;;;;;5073392;28;20144;-36
2023/04/20 06:34:13;;;;;;;1.85;0.70;;;17.20;1.00;;;;;;5072465;28;20055;-36
2023/04/20 06:36:43;;;;;;;4.25;1.27;;;17.20;1.00;;;;;;5073234;28;20076;-36
2023/04/20 06:39:10;;;;;;;5.38;1.67;;;17.20;1.00;;;;;;5073352;28;20055;-36
2023/04/20 06:41:37;;;;;;;6.03;1.50;;;17.20;1.00;;;;;;5073005;28;20567;-36
2023/04/20 06:44:05;;;;;;;4.72;0.90;;;17.20;1.00;;;;;;5072328;28;20040;-36
2023/04/20 06:46:32;;;;;;;4.40;1.17;;;17.30;1.00;;;;;;5073032;28;20115;-36
2023/04/20 06:48:59;;;;;;;3.40;1.10;;;17.20;1.00;;;;;;5073079;28;20044;-36
2023/04/20 06:51:27;;;;;;;3.58;1.50;;;17.20;1.00;;;;;;5072401;28;20054;-36
2023/04/20 06:53:55;;;;;;;4.25;1.40;;;17.20;1.00;;;;;;5072222;28;20044;-36
2023/04/20 06:56:22;;;;;;;3.05;1.08;;;17.30;1.00;;;;;;5072876;28;20040;-36
2023/04/20 06:58:49;;;;;;;5.22;1.05;;;17.20;1.00;;;;;;5072787;28;20071;-36
2023/04/20 07:01:16;;;;;;;2.80;1.05;;;17.20;1.00;;;;;;5072440;28;20044;-36
2023/04/20 07:03:45;;;;;;;7.13;1.85;;;17.30;1.00;;;;;;5071992;28;20041;-36
2023/04/20 07:06:12;;;;;;;4.20;1.27;;;17.20;1.00;;;;;;5072853;28;20049;-36
2023/04/20 07:08:41;;;;;;;2.50;1.10;;;17.20;1.00;;;;;;5072724;28;20063;-36
2023/04/20 07:11:08;;;;;;;6.85;1.48;;;17.20;1.00;;;;;;5072584;28;20045;-36
2023/04/20 07:13:34;;;;;;;2.75;1.02;;;17.30;1.00;;;;;;5071838;28;20048;-36
2023/04/20 07:16:01;;;;;;;6.82;1.35;;;17.30;1.00;;;;;;5072503;28;20113;-35
2023/04/20 07:18:28;;;;;;;3.70;1.38;;;17.30;1.00;;;;;;5072382;28;20045;-35
2023/04/20 07:20:55;;;;;;;4.82;1.38;;;17.30;1.00;;;;;;5054643;28;20412;-35
2023/04/20 07:23:22;;;;;;;6.53;1.27;;;17.30;1.00;;;;;;5071662;28;20045;-35
2023/04/20 07:25:49;;;;;;;7.45;1.48;;;17.30;1.00;;;;;;5072464;28;20403;-35
2023/04/20 07:28:15;;;;;;;5.47;1.38;;;17.30;1.00;;;;;;5072328;28;20511;-35
2023/04/20 07:30:42;;;;;;;3.42;1.60;;;17.30;1.00;;;;;;5072197;28;20506;-35
2023/04/20 07:33:09;;;;;;;6.07;1.80;;;17.30;1.00;;;;;;5071521;28;20080;-35
2023/04/20 07:35:36;;;;;;;6.35;1.63;;;17.30;1.00;;;;;;5072140;28;20044;-35
2023/04/20 07:38:03;;;;;;;5.93;1.67;;;17.30;1.00;;;;;;5072262;28;20051;-35
2023/04/20 07:40:30;;;;;;;3.13;1.20;;;17.30;1.00;;;;;;5072262;28;20123;-35
2023/04/20 07:42:56;;;;;;;6.18;1.33;;;17.30;1.00;;;;;;5071146;28;20044;-35
2023/04/20 07:45:24;;;;;;;4.10;1.60;;;17.30;1.00;;;;;;5072003;28;20036;-35
2023/04/20 07:47:54;;;;;;;7.55;1.50;;;17.30;1.00;;;;;;5072016;28;20036;-35
2023/04/20 07:50:22;;;;;;;3.55;1.38;;;17.30;1.00;;;;;;5054142;28;20048;-35
2023/04/20 07:52:48;;;;;;;3.70;1.50;;;17.30;1.00;;;;;;5071423;28;20041;-35
2023/04/20 07:55:16;;;;;;;6.03;1.35;;;17.30;1.00;;;;;;5071959;28;20511;-35
2023/04/20 07:57:44;;;;;;;5.15;1.48;;;17.30;1.00;;;;;;5071157;28;20044;-36
2023/04/20 08:00:12;;;;;;;4.97;2.08;;;17.30;1.00;;;;;;5071842;28;20040;-36
2023/04/20 08:02:39;;;;;;;5.95;1.67;;;17.30;1.00;;;;;;5071291;28;20054;-36
2023/04/20 08:05:08;;;;;;;2.72;1.42;;;17.30;1.00;;;;;;5072027;28;20068;-36
2023/04/20 08:07:36;;;;;;;5.60;1.55;;;17.30;1.00;;;;;;5071874;28;20059;-35
2023/04/20 08:10:04;;;;;;;5.05;1.30;;;17.30;1.00;;;;;;5071806;28;20110;-36
2023/04/20 08:12:31;;;;;;;3.10;1.27;;;17.30;1.00;;;;;;5071070;28;20112;-35
2023/04/20 08:15:00;;;;;;;4.85;1.60;;;17.30;1.00;;;;;;5071408;28;20101;-35
2023/04/20 08:17:27;;;;;;;7.32;1.83;;;17.30;1.00;;;;;;5071664;28;20666;-35
2023/04/20 08:19:54;;;;;;;5.97;1.10;;;17.30;1.00;;;;;;5071816;28;20033;-35
2023/04/20 08:22:21;;;;;;;3.55;1.45;;;17.30;1.00;;;;;;5071171;28;20079;-35
2023/04/20 08:24:47;;;;;;;5.85;1.73;;;17.30;1.00;;;;;;5071609;28;20054;-35
2023/04/20 08:27:14;;;;;;;3.38;1.15;;;17.30;1.00;;;;;;5071656;28;20041;-37
2023/04/20 08:29:41;;;;;;;4.57;1.50;;;17.30;1.00;;;;;;5071698;28;20040;-35
2023/04/20 08:32:08;;;;;;;10.52;1.50;;;17.30;1.00;;;;;;5071438;28;20056;-36
2023/04/20 08:34:35;;;;;;;4.32;1.30;;;17.30;1.00;;;;;;5071175;28;20044;-35
2023/04/20 08:37:02;;;;;;;3.83;1.30;;;17.30;1.00;;;;;;5071496;28;20047;-35
2023/04/20 08:39:38;;;;;;;4.55;1.20;;;17.30;1.00;;;;;;5071518;28;20090;-35
2023/04/20 08:42:05;;;;;;;4.05;2.03;;;17.30;1.00;;;;;;5071383;28;20044;-35
2023/04/20 08:44:32;;;;;;;2.53;1.13;;;17.20;1.00;;;;;;5070838;28;20033;-35
2023/04/20 08:46:59;;;;;;;5.25;1.25;;;17.30;1.00;;;;;;5071520;28;20048;-35
2023/04/20 08:49:31;;;;;;;3.72;1.13;;;17.30;1.00;;;;;;5053778;28;20492;-35
2023/04/20 08:51:58;;;;;;;2.92;1.35;;;17.20;1.00;;;;;;5071331;28;20465;-35
2023/04/20 08:54:25;;;;;;;6.03;2.00;;;17.20;1.00;;;;;;5070850;28;20460;-35
2023/04/20 08:56:53;;;;;;;3.83;1.60;;;17.20;1.00;;;;;;5071272;28;20090;-35
2023/04/20 08:59:20;;;;;;;2.28;1.00;;;17.20;1.00;;;;;;5071546;28;20037;-35
2023/04/20 09:01:47;;;;;;;4.22;1.17;;;17.20;1.00;;;;;;5071276;28;20515;-35
2023/04/20 09:04:21;;;;;;;5.40;1.52;;;17.20;1.00;;;;;;5070439;28;20115;-35
2023/04/20 09:06:51;;;;;;;4.00;1.48;;;17.20;1.00;;;;;;5071325;28;20055;-35
2023/04/20 09:09:19;;;;;;;2.85;1.15;;;17.20;1.00;;;;;;5072833;28;20059;-35
2023/04/20 09:11:46;;;;;;;4.97;1.45;;;17.20;1.00;;;;;;5074864;28;20052;-35
2023/04/20 09:14:15;;;;;;;5.28;2.25;;;17.10;1.00;;;;;;5074186;28;20049;-35
2023/04/20 09:16:51;;;;;;;5.85;1.27;;;17.10;1.00;;;;;;5074723;28;20041;-35
2023/04/20 09:19:25;;;;;;;6.43;1.02;;;17.10;1.00;;;;;;5074714;28;20071;-35
2023/04/20 09:21:53;;;;;;;;;;;17.10;1.00;;;;;;5075089;28;20040;-42
2023/04/20 09:24:21;;;;;;;4.22;1.10;;;17.10;1.00;;;;;;5073944;28;19924;-40
2023/04/20 09:26:49;;;;;;;4.05;1.38;;;17.10;1.00;;;;;;5074645;28;20064;-40
2023/04/20 09:29:18;;;;;;;4.05;1.40;;;17.10;1.00;;;;;;5074741;28;20373;-41
2023/04/20 09:31:46;;;;;;;3.78;1.13;;;17.10;1.00;;;;;;5074335;28;20098;-42
2023/04/20 09:34:16;;;;;;;5.80;1.63;;;17.00;1.00;;;;;;5073746;28;20052;-42
2023/04/20 09:36:52;;;;;;;5.20;1.42;;;17.10;1.00;;;;;;5074631;28;20040;-41
2023/04/20 09:39:21;;;;;;;2.80;1.10;;;17.00;1.00;;;;;;5074426;28;20459;-41
2023/04/20 09:41:50;;;;;;;4.72;1.00;;;17.00;1.00;;;;;;5074345;28;20044;-42
2023/04/20 09:44:18;;;;;;;4.13;1.70;;;17.00;1.00;;;;;;5073511;28;20033;-41
2023/04/20 09:46:45;;;;;;;6.28;1.40;;;17.00;1.00;;;;;;5074337;28;20106;-42
2023/04/20 09:49:13;;;;;;;3.53;0.80;;;17.00;1.00;;;;;;5074412;28;20090;-44
2023/04/20 09:51:44;;;;;;;3.85;1.30;;;17.00;1.00;;;;;;5074173;28;20047;-43
2023/04/20 09:54:11;;;;;;;6.30;1.48;;;17.00;1.00;;;;;;5073458;28;20076;-44
2023/04/20 09:56:38;;;;;;;3.55;1.45;;;17.00;1.00;;;;;;5074216;28;20127;-43
2023/04/20 09:59:06;;;;;;;6.28;1.83;;;17.00;1.00;;;;;;5073978;28;20502;-42
2023/04/20 10:01:36;;;;;;;3.45;1.10;;;16.90;1.00;;;;;;5055849;28;20510;-43
2023/04/20 10:04:06;;;;;;;6.97;1.88;;;17.00;1.00;;;;;;5073310;28;20041;-41
2023/04/20 10:06:35;;;;;;;3.30;1.20;;;16.90;1.00;;;;;;5073737;28;20051;-43
2023/04/20 10:09:05;;;;;;;4.50;1.63;;;16.90;1.00;;;;;;5073853;28;20049;-43
2023/04/20 10:11:39;;;;;;;2.05;1.10;;;16.90;1.00;;;;;;5073762;28;20419;-41
2023/04/20 10:14:22;;;;;;;2.85;1.58;;;16.90;1.00;;;;;;5073228;28;20044;-42
2023/04/20 10:17:00;;;;;;;3.50;1.52;;;16.90;1.00;;;;;;5073736;28;20560;-43
2023/04/20 10:19:42;;;;;;;3.65;1.10;;;16.90;1.00;;;;;;5073771;28;20040;-41
2023/04/20 10:22:24;;;;;;;3.58;1.30;;;16.90;1.00;;;;;;5054816;28;20052;-42
2023/04/20 10:24:51;;;;;;;3.33;1.30;;;16.90;1.00;;;;;;5072991;28;20044;-42
2023/04/20 10:27:19;;;;;;;3.05;1.00;;;16.90;1.00;;;;;;5074053;28;20127;-44
2023/04/20 10:29:46;;;;;;;3.30;1.30;;;16.90;1.00;;;;;;5073524;28;20053;-43
2023/04/20 10:32:27;;;;;;;3.33;1.25;;;16.90;1.00;;;;;;5073199;28;20524;-42
2023/04/20 10:35:06;;;;;;;4.47;1.40;;;16.90;1.00;;;;;;5073027;28;20123;-42
2023/04/20 10:37:33;;;;;;;3.55;1.60;;;16.90;1.00;;;;;;5073323;28;20037;-43
2023/04/20 10:40:03;;;;;;;5.38;1.85;;;16.90;1.00;;;;;;5073335;28;20090;-43
2023/04/20 10:42:43;;;;;;;3.83;1.08;;;16.90;1.00;;;;;;5072788;28;20257;-43
2023/04/20 10:45:11;;;;;;;4.93;1.42;;;16.80;1.00;;;;;;5073090;28;20044;-43
2023/04/20 10:47:43;;;;;;;3.05;1.00;;;16.80;1.00;;;;;;5073181;28;20090;-43
2023/04/20 10:50:14;;;;;;;2.35;1.20;;;16.80;1.00;;;;;;5073129;28;20107;-43
2023/04/20 10:52:43;;;;;;;2.88;1.13;;;16.80;1.00;;;;;;5072233;28;20044;-44
2023/04/20 10:55:24;;;;;;;5.72;1.52;;;16.80;1.00;;;;;;5072868;28;20066;-44
2023/04/20 10:57:52;;;;;;;5.13;1.45;;;16.80;1.00;;;;;;5072945;28;20550;-42
2023/04/20 11:00:21;;;;;;;5.10;1.70;;;16.80;1.00;;;;;;5073011;28;20052;-44
2023/04/20 11:02:49;;;;;;;3.45;1.80;;;16.80;1.00;;;;;;5072116;28;20519;-44
2023/04/20 11:05:17;;;;;;;3.00;1.52;;;16.80;1.00;;;;;;5072853;28;20037;-44
2023/04/20 11:07:55;;;;;;;4.47;1.52;;;16.80;1.00;;;;;;5072719;28;20045;-42
2023/04/20 11:10:23;;;;;;;3.78;1.63;;;16.80;1.00;;;;;;5054831;28;20052;-44
2023/04/20 11:12:50;;;;;;;3.97;1.58;;;16.80;1.00;;;;;;5071818;28;20550;-42
2023/04/20 11:15:17;;;;;;;1.40;0.90;;;16.80;1.00;;;;;;5072732;28;20044;-43
2023/04/20 11:17:45;;;;;;;3.45;1.58;;;16.80;1.00;;;;;;5072396;28;20115;-44
2023/04/20 11:20:15;;;;;;;5.10;1.50;;;16.80;1.00;;;;;;5072582;28;20639;-44
2023/04/20 11:22:43;;;;;;;3.92;1.30;;;16.80;1.00;;;;;;5071529;28;20068;-44
2023/04/20 11:25:11;;;;;;;4.10;1.83;;;16.80;1.00;;;;;;5072279;28;20044;-44
2023/04/20 11:27:38;;;;;;;5.13;1.63;;;16.80;1.00;;;;;;5072365;28;20048;-44
2023/04/20 11:30:06;;;;;;;3.83;1.30;;;16.80;1.00;;;;;;5072377;28;20045;-43
2023/04/20 11:32:35;;;;;;;3.45;1.38;;;16.80;1.00;;;;;;5071527;28;20407;-44
2023/04/20 11:35:08;;;;;;;2.78;1.60;;;16.80;1.00;;;;;;5072046;28;20074;-41
2023/04/20 11:37:50;;;;;;;3.75;1.40;;;16.80;1.00;;;;;;5072221;28;20058;-43
2023/04/20 11:40:17;;;;;;;5.13;1.52;;;16.80;1.00;;;;;;5072317;28;20497;-43
2023/04/20 11:42:45;;;;;;;3.80;1.60;;;16.80;1.00;;;;;;5071244;28;20044;-43
2023/04/20 11:45:11;;;;;;;2.60;1.50;;;16.80;1.00;;;;;;5072004;28;20047;-42
2023/04/20 11:47:39;;;;;;;4.70;1.45;;;16.80;1.00;;;;;;5072106;28;20072;-42
2023/04/20 11:50:08;;;;;;;5.90;1.38;;;16.80;1.00;;;;;;5072038;28;20469;-43
2023/04/20 11:52:34;;;;;;;4.53;1.50;;;16.80;1.00;;;;;;5071558;28;20510;-42
2023/04/20 11:55:01;;;;;;;5.57;1.70;;;16.80;1.00;;;;;;5054130;28;20098;-44
2023/04/20 11:57:28;;;;;;;4.82;1.67;;;16.80;1.00;;;;;;5071885;28;20098;-44
2023/04/20 11:59:55;;;;;;;4.97;1.30;;;16.80;1.00;;;;;;5071902;28;20040;-42
2023/04/20 12:02:22;;;;;;;8.10;1.75;;;16.80;1.00;;;;;;5071046;28;20045;-43
2023/04/20 12:04:49;;;;;;;3.67;1.42;;;16.80;1.00;;;;;;5071547;28;20094;-40
2023/04/20 12:07:16;;;;;;;5.82;1.48;;;16.80;1.00;;;;;;5071812;28;20087;-44
2023/04/20 12:09:43;;;;;;;3.00;1.65;;;16.80;1.00;;;;;;5071916;28;20048;-43
2023/04/20 12:12:10;;;;;;;4.53;1.35;;;16.80;1.00;;;;;;5071337;28;20480;-42
2023/04/20 12:14:36;;;;;;;4.28;1.95;;;16.70;1.00;;;;;;5071156;28;20094;-43
2023/04/20 12:17:04;;;;;;;3.17;1.00;;;16.80;1.00;;;;;;5071828;28;20123;-43
2023/04/20 12:19:30;;;;;;;4.00;1.42;;;16.70;1.00;;;;;;5071700;28;20040;-43
2023/04/20 12:21:57;;;;;;;3.80;1.63;;;16.70;1.00;;;;;;5071549;28;20040;-42
2023/04/20 12:24:24;;;;;;;5.22;1.50;;;16.70;1.00;;;;;;5071002;28;20044;-43
2023/04/20 12:26:51;;;;;;;4.65;1.52;;;16.70;1.00;;;;;;5071519;28;20397;-43
2023/04/20 12:29:17;;;;;;;2.78;1.10;;;16.70;1.00;;;;;;5071768;28;20120;-43
2023/04/20 12:31:45;;;;;;;3.88;1.90;;;16.70;1.00;;;;;;5071501;28;20067;-41
2023/04/20 12:34:11;;;;;;;1.95;0.98;;;16.70;1.00;;;;;;5070896;28;20484;-43
2023/04/20 12:36:38;;;;;;;1.70;1.00;;;16.70;1.00;;;;;;5071548;28;20052;-43
2023/04/20 12:39:05;;;;;;;2.13;1.20;;;16.70;1.00;;;;;;5071478;28;20037;-43
2023/04/20 12:41:33;;;;;;;4.60;1.40;;;16.70;1.00;;;;;;5071986;28;20055;-42
2023/04/20 12:44:00;;;;;;;1.48;1.05;;;16.70;1.00;;;;;;5071942;28;20043;-41
2023/04/20 12:46:30;;;;;;;3.65;1.40;;;16.70;1.00;;;;;;5075682;28;20044;-43
2023/04/20 12:48:57;;;;;;;3.65;1.40;;;16.70;1.00;;;;;;5075442;28;20052;-42
2023/04/20 12:51:24;;;;;;;2.20;1.30;;;16.70;1.00;;;;;;5075267;28;20048;-42
2023/04/20 12:53:51;;;;;;;5.72;1.58;;;16.70;1.00;;;;;;5074522;28;20044;-40
2023/04/20 12:56:18;;;;;;;2.65;1.27;;;16.70;1.00;;;;;;5075274;28;20123;-44
2023/04/20 12:58:45;;;;;;;3.95;1.70;;;16.70;1.00;;;;;;5075199;28;20118;-43
2023/04/20 13:01:11;;;;;;;3.78;1.17;;;16.70;1.00;;;;;;5075173;28;20051;-39
2023/04/20 13:03:38;;;;;;;2.42;1.23;;;16.70;1.00;;;;;;5074302;28;20048;-43